Time;durP1;ratioP1;P1;durP2;ratioP2;P2;SDS_P1;SDS_P2;PMS_P1;PMS_P2;Temp;Humidity;BMP_temperature;BMP_pressure;BME280_temperature;BME280_humidity;BME280_pressure;Samples;Min_cycle;Max_cycle;Signal;HPM_P1;HPM_P2
2023/06/17 00:00:21;;;;;;;11.23;8.25;;;16.50;88.90;;;;;;5034663;28;20557;-73
2023/06/17 00:02:47;;;;;;;15.82;8.35;;;16.40;89.70;;;;;;5034684;28;20041;-73
2023/06/17 00:05:12;;;;;;;14.35;8.63;;;16.40;90.00;;;;;;5034515;28;20033;-73
2023/06/17 00:07:39;;;;;;;13.57;7.68;;;16.40;90.30;;;;;;5034595;28;20092;-73
2023/06/17 00:10:06;;;;;;;12.90;8.88;;;16.30;90.80;;;;;;5034535;28;20080;-73
2023/06/17 00:12:33;;;;;;;16.25;8.65;;;16.30;91.10;;;;;;5034399;28;20046;-73
2023/06/17 00:15:01;;;;;;;9.90;8.65;;;16.30;91.30;;;;;;5018195;28;20039;-73
2023/06/17 00:17:29;;;;;;;12.35;8.23;;;16.30;91.60;;;;;;5034392;28;20033;-73
2023/06/17 00:19:56;;;;;;;11.38;8.32;;;16.20;91.50;;;;;;5034601;28;20108;-73
2023/06/17 00:22:25;;;;;;;9.68;7.85;;;16.20;91.70;;;;;;5034569;28;20401;-73
2023/06/17 00:24:51;;;;;;;12.75;8.13;;;16.10;91.70;;;;;;5034428;28;20516;-73
2023/06/17 00:27:17;;;;;;;15.57;9.23;;;16.10;91.80;;;;;;5034256;28;20485;-73
2023/06/17 00:29:43;;;;;;;13.27;8.57;;;16.10;92.00;;;;;;5034387;28;20053;-73
2023/06/17 00:32:08;;;;;;;12.30;8.68;;;16.00;92.20;;;;;;5033070;28;20494;-73
2023/06/17 00:34:34;;;;;;;11.77;8.32;;;16.00;92.50;;;;;;5017625;28;20037;-73
2023/06/17 00:37:00;;;;;;;13.73;9.45;;;16.00;92.70;;;;;;5034087;28;20042;-73
2023/06/17 00:39:26;;;;;;;9.15;8.02;;;16.00;93.30;;;;;;5034029;28;20056;-73
2023/06/17 00:41:51;;;;;;;15.52;8.95;;;15.90;93.10;;;;;;5033998;28;20037;-73
2023/06/17 00:44:17;;;;;;;13.52;9.07;;;15.90;93.60;;;;;;5033937;28;20041;-73
2023/06/17 00:46:50;;;;;;;14.75;9.25;;;16.00;94.20;;;;;;5034027;28;20049;-73
2023/06/17 00:49:17;;;;;;;10.70;9.30;;;16.10;94.60;;;;;;5017421;28;20044;-73
2023/06/17 00:51:44;;;;;;;14.20;8.85;;;16.10;95.00;;;;;;5033750;28;20412;-73
2023/06/17 00:54:12;;;;;;;13.00;9.45;;;16.10;95.30;;;;;;5017140;28;20417;-73
2023/06/17 00:56:39;;;;;;;13.77;9.85;;;16.20;95.60;;;;;;5033761;28;20056;-73
2023/06/17 00:59:05;;;;;;;11.70;10.18;;;16.20;95.90;;;;;;5033927;28;20518;-73
2023/06/17 01:01:35;;;;;;;14.57;10.68;;;16.20;95.80;;;;;;5033637;28;20045;-73
2023/06/17 01:04:02;;;;;;;15.82;10.27;;;16.20;95.70;;;;;;5033511;28;20053;-73
2023/06/17 01:06:45;;;;;;;13.70;10.70;;;16.20;96.00;;;;;;5033727;28;20060;-73
2023/06/17 01:09:15;;;;;;;;;;;16.30;96.60;;;;;;5034159;28;20560;-73
2023/06/17 01:11:42;;;;;;;14.38;10.82;;;16.20;97.10;;;;;;5033432;28;19921;-73
2023/06/17 01:14:10;;;;;;;10.85;9.75;;;16.10;96.70;;;;;;5016838;28;20057;-73
2023/06/17 01:16:41;;;;;;;15.10;11.40;;;16.20;97.10;;;;;;5033242;28;20038;-73
2023/06/17 01:19:18;;;;;;;16.52;11.68;;;16.20;97.60;;;;;;5033534;28;20033;-73
2023/06/17 01:21:53;;;;;;;13.88;10.93;;;16.30;98.50;;;;;;5033259;28;20048;-73
2023/06/17 01:24:30;;;;;;;14.10;10.75;;;16.30;99.00;;;;;;5033165;28;20124;-73
2023/06/17 01:26:59;;;;;;;12.93;11.00;;;16.30;99.30;;;;;;5033894;28;20475;-73
2023/06/17 01:29:29;;;;;;;14.80;12.05;;;16.40;99.80;;;;;;5033018;28;20041;-73
2023/06/17 01:31:58;;;;;;;17.00;11.70;;;16.40;99.90;;;;;;5033004;28;20041;-73
2023/06/17 01:34:50;;;;;;;14.63;12.70;;;16.50;99.90;;;;;;5032793;28;20059;-73
2023/06/17 01:37:23;;;;;;;15.98;12.93;;;16.50;99.90;;;;;;5032874;28;20045;-73
2023/06/17 01:39:51;;;;;;;19.50;13.38;;;16.60;99.90;;;;;;5016544;28;20041;-73
2023/06/17 01:42:31;;;;;;;18.10;13.30;;;16.60;99.90;;;;;;5032714;28;20038;-73
2023/06/17 01:44:59;;;;;;;16.08;11.77;;;16.70;99.90;;;;;;5032729;28;20048;-73
2023/06/17 01:47:25;;;;;;;17.90;12.50;;;16.70;99.90;;;;;;5033008;28;20037;-73
2023/06/17 01:49:51;;;;;;;19.00;13.00;;;16.70;99.90;;;;;;5032967;28;20048;-73
2023/06/17 01:52:17;;;;;;;19.35;13.52;;;16.80;99.90;;;;;;5032525;28;20406;-73
2023/06/17 01:54:42;;;;;;;15.68;14.10;;;16.80;99.90;;;;;;5032406;28;20037;-73
2023/06/17 01:57:08;;;;;;;23.42;15.65;;;16.90;99.90;;;;;;5016167;28;20038;-73
2023/06/17 01:59:34;;;;;;;18.63;13.95;;;16.80;99.90;;;;;;5032840;28;20041;-73
2023/06/17 02:01:59;;;;;;;22.10;14.45;;;16.90;99.90;;;;;;5032451;28;20414;-73
2023/06/17 02:04:25;;;;;;;20.58;15.80;;;16.90;99.90;;;;;;5032435;28;20041;-73
2023/06/17 02:06:51;;;;;;;23.02;16.33;;;16.90;99.90;;;;;;5015952;28;20048;-73
2023/06/17 02:09:17;;;;;;;21.70;16.08;;;17.00;99.90;;;;;;5032349;28;20077;-73
2023/06/17 02:11:43;;;;;;;22.90;15.95;;;17.00;99.90;;;;;;5032639;28;20084;-73
2023/06/17 02:14:08;;;;;;;19.88;16.67;;;17.00;99.90;;;;;;5032265;28;20518;-72
2023/06/17 02:16:42;;;;;;;21.38;16.30;;;17.10;99.90;;;;;;5032172;28;20038;-73
2023/06/17 02:19:08;;;;;;;21.75;16.55;;;17.00;99.90;;;;;;5015779;28;20088;-73
2023/06/17 02:21:33;;;;;;;22.65;16.25;;;17.00;99.90;;;;;;5015714;28;20029;-73
2023/06/17 02:23:59;;;;;;;21.17;15.80;;;17.00;99.90;;;;;;5032129;28;20107;-73
2023/06/17 02:26:25;;;;;;;18.83;15.23;;;17.00;99.90;;;;;;5032359;28;20081;-73
2023/06/17 02:28:50;;;;;;;20.05;15.15;;;17.10;99.90;;;;;;5032146;28;20514;-73
2023/06/17 02:31:16;;;;;;;18.42;15.98;;;17.10;99.90;;;;;;5015854;28;20073;-73
2023/06/17 02:33:41;;;;;;;23.00;17.08;;;17.10;99.90;;;;;;5031951;28;20490;-73
2023/06/17 02:36:07;;;;;;;24.40;16.30;;;17.00;99.90;;;;;;5031934;28;20038;-73
2023/06/17 02:38:33;;;;;;;19.60;16.67;;;17.00;99.90;;;;;;5032238;28;20033;-73
2023/06/17 02:40:59;;;;;;;27.00;16.85;;;17.00;99.90;;;;;;5031927;28;20084;-73
2023/06/17 02:43:24;;;;;;;21.30;16.10;;;17.00;99.90;;;;;;5032115;28;20409;-73
2023/06/17 02:45:50;;;;;;;23.02;16.60;;;17.00;99.90;;;;;;5031791;28;20505;-73
2023/06/17 02:48:15;;;;;;;26.83;16.95;;;17.00;99.90;;;;;;5032094;28;20052;-73
2023/06/17 02:50:41;;;;;;;20.73;17.65;;;17.00;99.90;;;;;;5032126;28;20049;-73
2023/06/17 02:53:07;;;;;;;22.67;18.13;;;17.00;99.90;;;;;;5015456;28;20508;-73
2023/06/17 02:55:33;;;;;;;24.13;16.67;;;17.00;99.90;;;;;;5034432;28;20037;-73
2023/06/17 02:57:59;;;;;;;21.60;16.70;;;17.00;99.90;;;;;;5035890;28;20048;-73
2023/06/17 03:00:24;;;;;;;27.75;17.98;;;17.00;99.90;;;;;;5019362;28;20041;-73
2023/06/17 03:02:50;;;;;;;24.98;16.55;;;17.00;99.90;;;;;;5019279;28;20128;-73
2023/06/17 03:05:16;;;;;;;21.10;16.60;;;17.00;99.90;;;;;;5035983;28;20046;-73
2023/06/17 03:07:43;;;;;;;22.45;17.48;;;17.00;99.90;;;;;;5035717;28;20095;-73
2023/06/17 03:10:10;;;;;;;20.02;15.98;;;17.00;99.90;;;;;;5035744;28;20044;-73
2023/06/17 03:12:35;;;;;;;23.75;17.70;;;17.00;99.90;;;;;;5035613;28;20038;-73
2023/06/17 03:15:01;;;;;;;23.70;16.60;;;16.90;99.90;;;;;;5035515;28;20048;-73
2023/06/17 03:17:27;;;;;;;21.90;16.63;;;16.90;99.90;;;;;;5035598;28;20044;-73
2023/06/17 03:19:53;;;;;;;22.05;17.50;;;16.90;99.90;;;;;;5035517;28;20034;-73
2023/06/17 03:22:19;;;;;;;22.05;17.48;;;16.90;99.90;;;;;;5019269;28;20087;-73
2023/06/17 03:24:45;;;;;;;22.13;17.83;;;16.90;99.90;;;;;;5035409;28;20453;-73
2023/06/17 03:27:12;;;;;;;24.60;17.30;;;16.90;99.90;;;;;;5035422;28;20033;-73
2023/06/17 03:29:37;;;;;;;19.10;16.48;;;16.80;99.90;;;;;;5035335;28;20049;-73
2023/06/17 03:32:03;;;;;;;22.90;16.95;;;16.90;99.90;;;;;;5035315;28;20029;-73
2023/06/17 03:34:30;;;;;;;25.33;17.10;;;16.80;99.90;;;;;;5035147;28;20037;-73
2023/06/17 03:36:56;;;;;;;19.85;17.50;;;16.80;99.90;;;;;;5035399;28;20037;-73
2023/06/17 03:39:22;;;;;;;20.75;16.17;;;16.80;99.90;;;;;;5018589;28;20445;-73
2023/06/17 03:41:48;;;;;;;22.42;16.45;;;16.80;99.90;;;;;;5035089;28;20040;-73
2023/06/17 03:44:13;;;;;;;18.65;16.70;;;16.80;99.90;;;;;;5035278;28;20067;-73
2023/06/17 03:46:39;;;;;;;22.92;17.58;;;16.80;99.90;;;;;;5034930;28;20520;-73
2023/06/17 03:49:05;;;;;;;23.42;17.73;;;16.80;99.90;;;;;;5034966;28;20052;-73
2023/06/17 03:51:31;;;;;;;21.83;16.67;;;16.80;99.90;;;;;;5034902;28;20037;-73
2023/06/17 03:53:56;;;;;;;21.70;16.67;;;16.80;99.90;;;;;;5034818;28;20046;-73
2023/06/17 03:56:22;;;;;;;20.30;16.83;;;16.80;99.90;;;;;;5034692;28;20126;-73
2023/06/17 03:58:48;;;;;;;23.65;16.23;;;16.80;99.90;;;;;;5034803;28;20037;-73
2023/06/17 04:01:14;;;;;;;24.58;17.42;;;16.80;99.90;;;;;;5034740;28;20041;-73
2023/06/17 04:03:41;;;;;;;28.42;17.08;;;16.80;99.90;;;;;;5018228;28;20041;-73
2023/06/17 04:06:08;;;;;;;22.20;17.75;;;16.80;99.90;;;;;;5034350;28;20049;-73
2023/06/17 04:08:35;;;;;;;27.48;17.88;;;16.80;99.90;;;;;;5034859;28;20094;-73
2023/06/17 04:11:02;;;;;;;26.63;17.30;;;16.70;99.90;;;;;;5034544;28;20151;-73
2023/06/17 04:13:28;;;;;;;20.35;17.33;;;16.70;99.90;;;;;;5034443;28;20056;-73
2023/06/17 04:15:53;;;;;;;23.48;18.58;;;16.80;99.90;;;;;;5034394;28;20033;-73
2023/06/17 04:18:19;;;;;;;24.23;16.80;;;16.80;99.90;;;;;;5034703;28;20114;-73
2023/06/17 04:20:45;;;;;;;22.23;16.58;;;16.80;99.90;;;;;;5017912;28;20508;-73
2023/06/17 04:23:10;;;;;;;20.27;16.75;;;16.80;99.90;;;;;;5034385;28;20128;-73
2023/06/17 04:25:36;;;;;;;21.60;17.88;;;16.80;99.90;;;;;;5034282;28;20037;-73
2023/06/17 04:28:07;;;;;;;20.00;17.20;;;16.80;99.90;;;;;;5034216;28;20049;-73
2023/06/17 04:30:33;;;;;;;24.63;16.75;;;16.80;99.90;;;;;;5034228;28;20041;-73
2023/06/17 04:33:00;;;;;;;22.42;16.33;;;16.80;99.90;;;;;;5034102;28;20065;-73
2023/06/17 04:35:26;;;;;;;21.45;16.75;;;16.80;99.90;;;;;;5034283;28;20498;-73
2023/06/17 04:37:55;;;;;;;24.55;17.00;;;16.80;99.90;;;;;;5034039;28;20486;-73
2023/06/17 04:40:22;;;;;;;24.27;16.67;;;16.90;99.90;;;;;;5034267;28;20041;-73
2023/06/17 04:42:49;;;;;;;19.15;17.05;;;16.90;99.90;;;;;;5034031;28;20080;-73
2023/06/17 04:45:17;;;;;;;19.80;15.50;;;16.90;99.90;;;;;;5033914;28;20103;-73
2023/06/17 04:47:45;;;;;;;22.30;17.02;;;17.00;99.90;;;;;;5033885;28;20448;-73
2023/06/17 04:50:17;;;;;;;21.58;15.70;;;17.00;99.90;;;;;;5033918;28;20041;-73
2023/06/17 04:52:44;;;;;;;18.65;15.52;;;16.90;99.90;;;;;;5034081;28;20202;-73
2023/06/17 04:55:14;;;;;;;24.60;16.83;;;17.00;99.90;;;;;;5033539;28;20383;-73
2023/06/17 04:57:42;;;;;;;21.80;17.58;;;17.00;99.90;;;;;;5033718;28;20048;-73
2023/06/17 05:00:10;;;;;;;24.88;17.50;;;17.00;99.90;;;;;;5033649;28;20044;-73
2023/06/17 05:02:39;;;;;;;22.90;17.65;;;17.00;99.90;;;;;;5033647;28;20045;-73
2023/06/17 05:05:06;;;;;;;19.20;17.00;;;16.90;99.90;;;;;;5033507;28;20045;-73
2023/06/17 05:07:32;;;;;;;21.83;16.60;;;16.90;99.90;;;;;;5033513;28;20045;-73
2023/06/17 05:09:58;;;;;;;22.92;16.00;;;16.90;99.90;;;;;;5033493;28;20081;-73
2023/06/17 05:12:23;;;;;;;20.88;15.93;;;16.90;99.90;;;;;;5033322;28;20045;-73
2023/06/17 05:14:49;;;;;;;23.35;16.73;;;16.90;99.90;;;;;;5033568;28;20040;-73
2023/06/17 05:17:14;;;;;;;20.48;17.25;;;16.90;99.90;;;;;;5032636;28;20501;-73
2023/06/17 05:19:40;;;;;;;24.52;19.27;;;16.90;99.90;;;;;;5033589;28;20041;-73
2023/06/17 05:22:06;;;;;;;24.02;18.50;;;16.90;99.90;;;;;;5033202;28;20402;-73
2023/06/17 05:24:31;;;;;;;21.05;18.35;;;16.90;99.90;;;;;;5033070;28;20045;-73
2023/06/17 05:26:57;;;;;;;20.02;17.50;;;16.90;99.90;;;;;;5033144;28;20041;-73
2023/06/17 05:29:22;;;;;;;38.50;20.17;;;17.00;99.90;;;;;;5033310;28;20049;-73
2023/06/17 05:31:48;;;;;;;26.80;18.80;;;17.10;99.90;;;;;;5033060;28;20509;-73
2023/06/17 05:34:14;;;;;;;22.42;17.35;;;17.00;99.90;;;;;;5032974;28;20041;-73
2023/06/17 05:36:40;;;;;;;22.30;18.60;;;17.10;99.90;;;;;;5032859;28;20033;-73
2023/06/17 05:39:05;;;;;;;20.40;17.10;;;17.10;99.90;;;;;;5032928;28;20084;-73
2023/06/17 05:41:31;;;;;;;26.52;18.27;;;17.20;99.90;;;;;;5032910;28;20077;-73
2023/06/17 05:43:57;;;;;;;23.20;17.70;;;17.20;99.90;;;;;;5016368;28;20040;-73
2023/06/17 05:46:22;;;;;;;22.73;18.20;;;17.20;99.90;;;;;;5032677;28;20052;-73
2023/06/17 05:48:48;;;;;;;26.15;20.38;;;17.20;99.90;;;;;;5032767;28;20042;-73
2023/06/17 05:51:15;;;;;;;21.50;17.38;;;17.20;99.90;;;;;;5033042;28;20049;-73
2023/06/17 05:53:41;;;;;;;19.52;17.38;;;17.20;99.90;;;;;;5032712;28;20299;-73
2023/06/17 05:56:10;;;;;;;22.25;17.52;;;17.10;99.90;;;;;;5032412;28;20390;-73
2023/06/17 05:58:36;;;;;;;21.35;17.92;;;17.20;99.90;;;;;;5032840;28;20041;-73
2023/06/17 06:01:01;;;;;;;20.10;17.80;;;17.20;99.90;;;;;;5032741;28;20042;-73
2023/06/17 06:03:27;;;;;;;23.27;17.77;;;17.10;99.90;;;;;;5032497;28;20575;-73
2023/06/17 06:05:52;;;;;;;21.73;17.52;;;17.10;99.90;;;;;;5032333;28;20046;-73
2023/06/17 06:08:18;;;;;;;21.92;18.17;;;17.20;99.90;;;;;;5016018;28;20045;-73
2023/06/17 06:10:44;;;;;;;24.55;19.42;;;17.20;99.90;;;;;;5015924;28;20037;-74
2023/06/17 06:13:10;;;;;;;20.52;17.30;;;17.30;99.90;;;;;;5032242;28;20045;-74
2023/06/17 06:15:36;;;;;;;20.15;16.83;;;17.30;99.90;;;;;;5032218;28;20046;-74
2023/06/17 06:18:01;;;;;;;26.13;18.38;;;17.20;99.90;;;;;;5015830;28;20044;-74
2023/06/17 06:20:27;;;;;;;21.35;17.27;;;17.30;99.90;;;;;;5032456;28;20041;-74
2023/06/17 06:22:53;;;;;;;23.75;17.50;;;17.30;99.90;;;;;;5032148;28;20523;-74
2023/06/17 06:25:18;;;;;;;22.17;18.50;;;17.30;99.90;;;;;;5032044;28;20048;-74
2023/06/17 06:27:44;;;;;;;21.33;18.13;;;17.30;99.90;;;;;;5032093;28;20037;-75
2023/06/17 06:30:11;;;;;;;22.33;17.52;;;17.30;99.90;;;;;;5015615;28;20041;-75
2023/06/17 06:32:37;;;;;;;21.13;16.98;;;17.30;99.90;;;;;;5032242;28;20053;-75
2023/06/17 06:35:03;;;;;;;19.75;16.55;;;17.40;99.90;;;;;;5031961;28;20414;-75
2023/06/17 06:37:28;;;;;;;19.52;17.02;;;17.30;99.90;;;;;;5015773;28;20128;-75
2023/06/17 06:39:54;;;;;;;18.73;16.73;;;17.40;99.90;;;;;;5031930;28;20411;-75
2023/06/17 06:42:20;;;;;;;18.75;16.85;;;17.30;99.90;;;;;;5031913;28;20033;-75
2023/06/17 06:44:45;;;;;;;21.73;17.50;;;17.40;99.90;;;;;;5015644;28;20072;-75
2023/06/17 06:47:11;;;;;;;19.23;15.95;;;17.50;99.90;;;;;;5031856;28;20465;-75
2023/06/17 06:49:37;;;;;;;18.60;16.65;;;17.50;99.90;;;;;;5032127;28;20034;-75
2023/06/17 06:52:02;;;;;;;20.85;17.25;;;17.50;99.90;;;;;;5032043;28;20406;-75
2023/06/17 06:54:28;;;;;;;19.05;17.05;;;17.50;99.90;;;;;;5031505;28;20410;-75
2023/06/17 06:56:54;;;;;;;20.95;16.63;;;17.60;99.90;;;;;;5032097;28;20041;-75
2023/06/17 06:59:19;;;;;;;20.45;17.25;;;17.60;99.90;;;;;;5031749;28;20038;-75
2023/06/17 07:01:45;;;;;;;22.65;17.27;;;17.70;99.90;;;;;;5031768;28;20037;-75
2023/06/17 07:04:11;;;;;;;20.98;17.52;;;17.70;99.90;;;;;;5031715;28;20051;-75
2023/06/17 07:06:36;;;;;;;17.73;15.77;;;17.80;99.90;;;;;;5031600;28;20045;-75
2023/06/17 07:09:02;;;;;;;17.65;15.85;;;17.90;99.90;;;;;;5031699;28;20046;-75
2023/06/17 07:11:28;;;;;;;18.50;16.50;;;18.00;99.90;;;;;;5031637;28;20037;-75
2023/06/17 07:13:53;;;;;;;17.08;15.15;;;18.00;99.90;;;;;;5031537;28;20060;-75
2023/06/17 07:16:19;;;;;;;21.85;16.08;;;18.20;99.90;;;;;;5015369;28;20034;-75
2023/06/17 07:18:45;;;;;;;24.77;15.93;;;18.30;99.90;;;;;;5031575;28;20525;-75
2023/06/17 07:21:10;;;;;;;20.08;15.10;;;18.40;99.90;;;;;;5031554;28;20111;-75
2023/06/17 07:23:36;;;;;;;24.73;16.30;;;18.50;99.90;;;;;;5031571;28;20052;-75
2023/06/17 07:26:02;;;;;;;17.45;15.65;;;18.60;99.90;;;;;;5031420;28;20077;-75
2023/06/17 07:28:31;;;;;;;23.60;15.88;;;18.70;99.90;;;;;;5031499;28;20041;-75
2023/06/17 07:30:57;;;;;;;21.17;15.63;;;18.70;99.90;;;;;;5031434;28;20464;-75
2023/06/17 07:33:23;;;;;;;21.55;15.63;;;18.90;99.90;;;;;;5031384;28;20042;-75
2023/06/17 07:35:48;;;;;;;19.95;15.18;;;19.00;99.90;;;;;;5031400;28;20038;-75
2023/06/17 07:38:14;;;;;;;17.05;14.93;;;19.00;99.90;;;;;;5031372;28;20045;-75
2023/06/17 07:40:39;;;;;;;20.33;15.40;;;19.10;99.90;;;;;;5032835;28;20037;-75
2023/06/17 07:43:05;;;;;;;17.85;15.75;;;19.20;99.90;;;;;;5035149;28;20048;-75
2023/06/17 07:45:31;;;;;;;19.05;15.50;;;19.20;99.90;;;;;;5034933;28;20041;-75
2023/06/17 07:47:56;;;;;;;17.23;14.68;;;19.30;99.90;;;;;;5035046;28;20037;-75
2023/06/17 07:50:22;;;;;;;19.33;14.85;;;19.40;99.90;;;;;;5034984;28;20195;-75
2023/06/17 07:52:50;;;;;;;17.15;14.05;;;19.50;99.90;;;;;;5034861;28;20050;-75
2023/06/17 07:55:16;;;;;;;18.30;15.25;;;19.60;99.90;;;;;;5034711;28;20052;-75
2023/06/17 07:57:42;;;;;;;17.60;14.75;;;19.60;99.90;;;;;;5018407;28;20051;-75
2023/06/17 08:00:13;;;;;;;18.63;14.05;;;19.70;99.80;;;;;;5034791;28;20120;-76
2023/06/17 08:02:42;;;;;;;20.48;14.75;;;19.70;99.60;;;;;;5034759;28;20048;-76
2023/06/17 08:05:09;;;;;;;19.08;13.63;;;19.80;99.70;;;;;;5034611;28;20447;-76
2023/06/17 08:07:35;;;;;;;16.83;15.18;;;20.10;99.50;;;;;;5034577;28;20480;-76
2023/06/17 08:10:01;;;;;;;17.58;14.50;;;20.30;98.70;;;;;;5034634;28;20076;-76
2023/06/17 08:12:26;;;;;;;22.63;14.80;;;20.40;98.40;;;;;;5034475;28;20069;-76
2023/06/17 08:14:52;;;;;;;18.05;14.75;;;20.60;97.80;;;;;;5034710;28;20045;-76
2023/06/17 08:17:18;;;;;;;20.80;15.10;;;20.60;97.20;;;;;;5034500;28;20556;-76
2023/06/17 08:19:44;;;;;;;19.77;14.63;;;20.70;96.80;;;;;;5034600;28;20040;-76
2023/06/17 08:22:10;;;;;;;18.60;13.30;;;20.90;96.80;;;;;;5034636;28;20029;-76
2023/06/17 08:24:36;;;;;;;17.58;13.60;;;21.00;96.00;;;;;;5034299;28;20042;-76
2023/06/17 08:27:02;;;;;;;19.70;14.52;;;21.10;95.40;;;;;;5034272;28;20128;-76
2023/06/17 08:29:28;;;;;;;18.65;15.00;;;21.30;94.90;;;;;;5034248;28;20041;-76
2023/06/17 08:31:54;;;;;;;16.73;11.98;;;21.30;94.30;;;;;;5034477;28;20040;-76
2023/06/17 08:34:21;;;;;;;16.67;14.00;;;21.30;94.60;;;;;;5034132;28;20556;-75
2023/06/17 08:36:52;;;;;;;15.52;13.30;;;21.50;94.10;;;;;;5034126;28;20088;-75
2023/06/17 08:39:18;;;;;;;20.10;13.10;;;21.60;93.90;;;;;;5034362;28;20049;-75
2023/06/17 08:41:44;;;;;;;19.95;13.40;;;21.70;93.40;;;;;;5034031;28;20033;-75
2023/06/17 08:44:13;;;;;;;15.00;12.93;;;21.90;92.80;;;;;;5017511;28;20051;-74
2023/06/17 08:46:42;;;;;;;23.13;13.23;;;22.00;92.00;;;;;;5033866;28;20084;-74
2023/06/17 08:49:08;;;;;;;14.77;12.48;;;22.10;92.10;;;;;;5034210;28;20429;-74
2023/06/17 08:51:35;;;;;;;15.52;11.80;;;22.20;91.40;;;;;;5033458;28;20080;-74
2023/06/17 08:54:01;;;;;;;17.67;12.63;;;22.40;91.40;;;;;;5033320;28;20048;-74
2023/06/17 08:56:27;;;;;;;17.30;12.43;;;22.40;90.60;;;;;;5033595;28;20037;-74
2023/06/17 08:58:55;;;;;;;17.38;10.63;;;22.50;90.60;;;;;;5033940;28;20033;-74
2023/06/17 09:01:22;;;;;;;15.82;11.52;;;22.50;90.30;;;;;;5033651;28;20536;-74
2023/06/17 09:03:51;;;;;;;14.65;11.27;;;22.60;89.60;;;;;;5033573;28;20049;-74
2023/06/17 09:06:25;;;;;;;17.70;12.13;;;22.60;89.90;;;;;;5033500;28;20124;-74
2023/06/17 09:08:52;;;;;;;13.60;10.10;;;22.70;88.40;;;;;;5017000;28;20128;-74
2023/06/17 09:11:28;;;;;;;13.32;10.10;;;22.90;88.50;;;;;;5033469;28;20034;-74
2023/06/17 09:13:55;;;;;;;12.05;9.70;;;22.90;87.40;;;;;;5033426;28;20041;-74
2023/06/17 09:16:28;;;;;;;14.15;10.23;;;23.10;87.50;;;;;;5033296;28;20042;-74
2023/06/17 09:18:56;;;;;;;14.07;10.35;;;23.20;86.40;;;;;;5033640;28;20129;-74
2023/06/17 09:21:22;;;;;;;12.45;9.35;;;23.30;85.00;;;;;;5033276;28;20044;-74
2023/06/17 09:23:55;;;;;;;14.05;9.52;;;23.40;84.20;;;;;;5033469;28;20045;-74
2023/06/17 09:26:41;;;;;;;11.25;8.93;;;23.60;83.60;;;;;;5033698;28;20045;-74
2023/06/17 09:29:09;;;;;;;14.23;9.55;;;23.70;83.30;;;;;;5033182;28;20040;-74
2023/06/17 09:31:52;;;;;;;12.52;9.10;;;23.80;82.10;;;;;;5033061;28;20048;-74
2023/06/17 09:34:19;;;;;;;12.15;8.20;;;23.90;82.50;;;;;;5032991;28;20064;-74
2023/06/17 09:36:46;;;;;;;14.15;9.27;;;24.00;82.40;;;;;;5032961;28;20042;-74
2023/06/17 09:39:12;;;;;;;13.48;9.05;;;24.30;81.30;;;;;;5032946;28;20041;-74
2023/06/17 09:41:42;;;;;;;13.88;8.45;;;24.40;80.90;;;;;;5032865;28;20519;-74
2023/06/17 09:44:09;;;;;;;9.05;7.68;;;24.50;79.10;;;;;;5032837;28;20044;-74
2023/06/17 09:46:37;;;;;;;10.60;7.88;;;24.70;79.10;;;;;;5032667;28;20090;-74
2023/06/17 09:49:12;;;;;;;12.23;8.32;;;24.90;77.60;;;;;;5033010;28;20045;-74
2023/06/17 09:51:39;;;;;;;12.13;7.57;;;25.00;75.70;;;;;;5033008;28;20037;-74
2023/06/17 09:54:06;;;;;;;10.93;8.70;;;25.00;75.20;;;;;;5032641;28;20040;-74
2023/06/17 09:56:33;;;;;;;13.07;8.10;;;25.10;75.00;;;;;;5032472;28;20044;-74
2023/06/17 09:59:00;;;;;;;10.52;7.82;;;25.10;75.40;;;;;;5016117;28;20401;-74
2023/06/17 10:01:30;;;;;;;13.18;7.57;;;25.10;74.70;;;;;;5032758;28;20041;-74
2023/06/17 10:03:58;;;;;;;14.07;7.40;;;25.30;74.70;;;;;;5032500;28;20045;-74
2023/06/17 10:06:27;;;;;;;12.55;7.93;;;25.40;74.00;;;;;;5016894;28;20033;-74
2023/06/17 10:08:53;;;;;;;12.88;7.57;;;25.70;73.90;;;;;;5032644;28;20457;-74
2023/06/17 10:11:20;;;;;;;13.93;8.73;;;25.80;73.20;;;;;;5032346;28;20518;-74
2023/06/17 10:14:07;;;;;;;12.50;7.65;;;25.90;72.50;;;;;;5032225;28;20418;-74
2023/06/17 10:16:40;;;;;;;10.65;8.00;;;26.10;72.10;;;;;;5032172;28;20037;-74
2023/06/17 10:19:09;;;;;;;8.63;7.20;;;26.10;71.10;;;;;;5032855;28;20041;-74
2023/06/17 10:21:39;;;;;;;11.00;7.93;;;26.20;71.40;;;;;;5032383;28;20375;-74
2023/06/17 10:24:06;;;;;;;10.45;6.90;;;26.40;71.10;;;;;;5032198;28;20033;-74
2023/06/17 10:26:32;;;;;;;19.33;7.28;;;26.40;70.10;;;;;;5032075;28;20414;-74
2023/06/17 10:29:06;;;;;;;14.20;6.90;;;26.50;69.20;;;;;;5016004;28;20038;-74
2023/06/17 10:31:37;;;;;;;11.48;6.90;;;26.60;69.50;;;;;;5015905;28;20481;-75
2023/06/17 10:34:03;;;;;;;11.48;7.05;;;26.80;68.90;;;;;;5031975;28;20524;-75
2023/06/17 10:36:30;;;;;;;13.20;6.45;;;27.00;68.70;;;;;;5031939;28;20038;-75
2023/06/17 10:38:57;;;;;;;9.43;5.75;;;27.10;67.40;;;;;;5032189;28;20041;-75
2023/06/17 10:41:49;;;;;;;9.10;6.50;;;27.20;66.60;;;;;;5031907;28;20041;-75
2023/06/17 10:44:27;;;;;;;9.30;6.80;;;27.40;65.70;;;;;;5015413;28;20136;-74
2023/06/17 10:46:56;;;;;;;9.82;5.90;;;27.50;64.50;;;;;;5031886;28;20084;-74
2023/06/17 10:49:22;;;;;;;11.05;6.45;;;27.50;65.60;;;;;;5032105;28;20120;-74
2023/06/17 10:51:49;;;;;;;10.18;6.15;;;27.50;63.90;;;;;;5031767;28;20037;-74
2023/06/17 10:54:15;;;;;;;11.18;5.90;;;27.70;63.80;;;;;;5015302;28;20041;-74
2023/06/17 10:56:53;;;;;;;9.05;5.95;;;27.90;63.60;;;;;;5015231;28;20044;-74
2023/06/17 10:59:28;;;;;;;10.10;5.95;;;28.00;62.70;;;;;;5032020;28;20065;-74
2023/06/17 11:02:02;;;;;;;9.70;5.50;;;28.20;61.60;;;;;;5031968;28;20095;-74
2023/06/17 11:04:31;;;;;;;9.57;5.55;;;28.40;61.30;;;;;;5031658;28;20103;-74
2023/06/17 11:07:02;;;;;;;9.48;5.93;;;28.50;60.80;;;;;;5031922;28;20045;-74
2023/06/17 11:09:29;;;;;;;10.05;6.20;;;28.60;59.80;;;;;;5031712;28;20120;-74
2023/06/17 11:11:56;;;;;;;10.23;6.07;;;28.70;60.10;;;;;;5031652;28;20053;-75
2023/06/17 11:14:30;;;;;;;11.93;6.38;;;28.80;60.30;;;;;;5031517;28;20080;-75
2023/06/17 11:16:55;;;;;;;11.85;6.30;;;28.90;59.80;;;;;;5035004;28;20042;-75
2023/06/17 11:19:22;;;;;;;11.60;6.35;;;28.90;59.40;;;;;;5035583;28;20033;-74
2023/06/17 11:22:01;;;;;;;7.45;5.70;;;29.00;59.80;;;;;;5035514;28;20042;-74
2023/06/17 11:24:27;;;;;;;8.98;5.40;;;29.10;58.30;;;;;;5018888;28;20413;-74
2023/06/17 11:26:54;;;;;;;11.20;5.07;;;29.10;56.70;;;;;;5035673;28;20037;-74
2023/06/17 11:29:20;;;;;;;10.35;5.53;;;29.30;57.10;;;;;;5035372;28;20053;-74
2023/06/17 11:31:46;;;;;;;8.95;5.10;;;29.40;56.60;;;;;;5035329;28;20045;-74
2023/06/17 11:34:12;;;;;;;9.38;4.93;;;29.50;55.80;;;;;;5035235;28;20048;-74
2023/06/17 11:36:38;;;;;;;8.00;4.90;;;29.70;55.60;;;;;;5035860;28;20080;-74
2023/06/17 11:39:04;;;;;;;8.93;5.07;;;29.80;55.60;;;;;;5035188;28;20084;-74
2023/06/17 11:41:31;;;;;;;13.25;4.78;;;29.90;54.50;;;;;;5035200;28;20038;-74
2023/06/17 11:43:57;;;;;;;12.05;5.63;;;30.00;55.20;;;;;;5035138;28;20502;-74
2023/06/17 11:46:24;;;;;;;7.35;4.47;;;30.10;53.90;;;;;;5034969;28;20083;-74
2023/06/17 11:48:50;;;;;;;9.90;5.10;;;30.20;54.40;;;;;;5035025;28;20041;-74
2023/06/17 11:51:19;;;;;;;8.90;5.00;;;30.20;53.50;;;;;;5035003;28;20049;-74
2023/06/17 11:53:47;;;;;;;8.40;4.72;;;30.30;54.50;;;;;;5034842;28;20072;-74
2023/06/17 11:56:15;;;;;;;7.47;5.00;;;30.40;55.00;;;;;;5034921;28;20083;-74
2023/06/17 11:58:42;;;;;;;8.32;5.03;;;30.60;54.60;;;;;;5035085;28;20056;-74
2023/06/17 12:01:09;;;;;;;8.65;5.13;;;30.80;53.20;;;;;;5035053;28;20044;-74
2023/06/17 12:03:36;;;;;;;8.00;4.97;;;30.80;53.30;;;;;;5034980;28;20091;-74
2023/06/17 12:06:02;;;;;;;6.72;4.72;;;30.80;52.70;;;;;;5034942;28;20076;-74
2023/06/17 12:08:36;;;;;;;10.05;4.97;;;30.80;52.50;;;;;;5034689;28;20045;-74
2023/06/17 12:11:09;;;;;;;5.95;4.68;;;30.90;53.40;;;;;;5034650;28;20045;-74
2023/06/17 12:13:42;;;;;;;8.25;4.82;;;31.00;54.00;;;;;;5034591;28;20045;-74
2023/06/17 12:16:22;;;;;;;11.45;4.60;;;31.20;52.80;;;;;;5034453;28;20037;-74
2023/06/17 12:18:48;;;;;;;9.13;4.80;;;31.40;52.50;;;;;;5034511;28;20497;-74
2023/06/17 12:21:14;;;;;;;6.65;4.35;;;31.40;53.10;;;;;;5034447;28;20113;-74
2023/06/17 12:23:40;;;;;;;6.57;4.10;;;31.50;51.20;;;;;;5034433;28;20033;-74
2023/06/17 12:26:05;;;;;;;5.95;4.43;;;31.50;50.10;;;;;;5034141;28;20104;-74
2023/06/17 12:28:32;;;;;;;10.55;4.40;;;31.50;49.80;;;;;;5034312;28;20060;-74
2023/06/17 12:30:58;;;;;;;8.77;4.90;;;31.60;50.80;;;;;;5034297;28;20037;-74